sensor_id;sensor_type;location;lat;lon;timestamp;P1;durP1;ratioP1;P2;durP2;ratioP2
69956;SDS011;57283;54.816;9.482;2023-10-09T00:01:45;6.03;;;2.00;;
69956;SDS011;57283;54.816;9.482;2023-10-09T00:04:13;5.50;;;2.00;;
69956;SDS011;57283;54.816;9.482;2023-10-09T00:06:42;6.05;;;2.00;;
69956;SDS011;57283;54.816;9.482;2023-10-09T00:09:10;4.60;;;1.63;;
69956;SDS011;57283;54.816;9.482;2023-10-09T00:11:58;4.85;;;1.80;;
69956;SDS011;57283;54.816;9.482;2023-10-09T00:14:28;5.22;;;1.70;;
69956;SDS011;57283;54.816;9.482;2023-10-09T00:16:59;5.20;;;1.80;;
69956;SDS011;57283;54.816;9.482;2023-10-09T00:19:48;4.30;;;1.80;;
69956;SDS011;57283;54.816;9.482;2023-10-09T00:22:19;5.40;;;1.90;;
69956;SDS011;57283;54.816;9.482;2023-10-09T00:24:53;6.00;;;1.80;;
69956;SDS011;57283;54.816;9.482;2023-10-09T00:27:37;3.97;;;1.77;;
69956;SDS011;57283;54.816;9.482;2023-10-09T00:30:08;4.63;;;1.90;;
69956;SDS011;57283;54.816;9.482;2023-10-09T00:32:39;5.25;;;2.03;;
69956;SDS011;57283;54.816;9.482;2023-10-09T00:35:11;4.23;;;1.80;;
69956;SDS011;57283;54.816;9.482;2023-10-09T00:37:56;5.05;;;1.75;;
69956;SDS011;57283;54.816;9.482;2023-10-09T00:40:30;4.28;;;1.80;;
69956;SDS011;57283;54.816;9.482;2023-10-09T00:43:01;5.95;;;1.88;;
69956;SDS011;57283;54.816;9.482;2023-10-09T00:45:33;4.22;;;2.00;;
69956;SDS011;57283;54.816;9.482;2023-10-09T00:48:07;4.23;;;1.50;;
69956;SDS011;57283;54.816;9.482;2023-10-09T00:50:36;4.28;;;1.80;;
69956;SDS011;57283;54.816;9.482;2023-10-09T00:53:05;4.57;;;1.75;;
69956;SDS011;57283;54.816;9.482;2023-10-09T00:55:38;5.10;;;1.60;;
69956;SDS011;57283;54.816;9.482;2023-10-09T00:58:12;4.30;;;1.67;;
69956;SDS011;57283;54.816;9.482;2023-10-09T01:00:40;5.70;;;1.73;;
69956;SDS011;57283;54.816;9.482;2023-10-09T01:03:14;4.07;;;1.70;;
69956;SDS011;57283;54.816;9.482;2023-10-09T01:05:47;4.20;;;1.63;;
69956;SDS011;57283;54.816;9.482;2023-10-09T01:08:25;4.95;;;1.70;;
69956;SDS011;57283;54.816;9.482;2023-10-09T01:10:57;4.25;;;1.50;;
69956;SDS011;57283;54.816;9.482;2023-10-09T01:13:35;5.67;;;1.43;;
69956;SDS011;57283;54.816;9.482;2023-10-09T01:16:19;4.32;;;1.20;;
69956;SDS011;57283;54.816;9.482;2023-10-09T01:18:49;3.83;;;1.40;;
69956;SDS011;57283;54.816;9.482;2023-10-09T01:21:18;3.72;;;1.30;;
69956;SDS011;57283;54.816;9.482;2023-10-09T01:23:51;3.40;;;1.20;;
69956;SDS011;57283;54.816;9.482;2023-10-09T01:26:30;3.70;;;1.33;;
69956;SDS011;57283;54.816;9.482;2023-10-09T01:29:00;3.78;;;1.27;;
69956;SDS011;57283;54.816;9.482;2023-10-09T01:31:30;4.63;;;1.40;;
69956;SDS011;57283;54.816;9.482;2023-10-09T01:34:04;4.00;;;1.30;;
69956;SDS011;57283;54.816;9.482;2023-10-09T01:36:36;5.20;;;1.48;;
69956;SDS011;57283;54.816;9.482;2023-10-09T01:39:07;3.90;;;1.30;;
69956;SDS011;57283;54.816;9.482;2023-10-09T01:41:47;3.88;;;1.20;;
69956;SDS011;57283;54.816;9.482;2023-10-09T01:44:18;3.90;;;1.50;;
69956;SDS011;57283;54.816;9.482;2023-10-09T01:46:46;4.10;;;1.42;;
69956;SDS011;57283;54.816;9.482;2023-10-09T01:49:13;3.65;;;1.30;;
69956;SDS011;57283;54.816;9.482;2023-10-09T01:51:48;3.90;;;1.40;;
69956;SDS011;57283;54.816;9.482;2023-10-09T01:54:18;3.70;;;1.40;;
69956;SDS011;57283;54.816;9.482;2023-10-09T01:57:00;3.92;;;1.30;;
69956;SDS011;57283;54.816;9.482;2023-10-09T01:59:32;5.15;;;1.60;;
69956;SDS011;57283;54.816;9.482;2023-10-09T02:02:04;3.63;;;1.40;;
69956;SDS011;57283;54.816;9.482;2023-10-09T02:04:53;4.13;;;1.40;;
69956;SDS011;57283;54.816;9.482;2023-10-09T02:07:32;3.40;;;1.10;;
69956;SDS011;57283;54.816;9.482;2023-10-09T02:10:09;3.58;;;1.30;;
69956;SDS011;57283;54.816;9.482;2023-10-09T02:12:48;3.20;;;1.30;;
69956;SDS011;57283;54.816;9.482;2023-10-09T02:15:19;5.43;;;1.00;;
69956;SDS011;57283;54.816;9.482;2023-10-09T02:18:06;4.30;;;1.00;;
69956;SDS011;57283;54.816;9.482;2023-10-09T02:20:45;4.72;;;1.00;;
69956;SDS011;57283;54.816;9.482;2023-10-09T02:23:14;3.85;;;1.00;;
69956;SDS011;57283;54.816;9.482;2023-10-09T02:25:45;2.97;;;0.80;;
69956;SDS011;57283;54.816;9.482;2023-10-09T02:28:19;4.22;;;0.90;;
69956;SDS011;57283;54.816;9.482;2023-10-09T02:30:47;3.40;;;1.00;;
69956;SDS011;57283;54.816;9.482;2023-10-09T02:33:15;4.43;;;1.00;;
69956;SDS011;57283;54.816;9.482;2023-10-09T02:35:54;3.25;;;0.90;;
69956;SDS011;57283;54.816;9.482;2023-10-09T02:38:26;3.83;;;0.95;;
69956;SDS011;57283;54.816;9.482;2023-10-09T02:40:55;4.78;;;1.00;;
69956;SDS011;57283;54.816;9.482;2023-10-09T02:43:44;3.40;;;1.10;;
69956;SDS011;57283;54.816;9.482;2023-10-09T02:46:13;2.90;;;1.00;;
69956;SDS011;57283;54.816;9.482;2023-10-09T02:48:44;3.10;;;0.90;;
69956;SDS011;57283;54.816;9.482;2023-10-09T02:51:17;3.42;;;1.02;;
69956;SDS011;57283;54.816;9.482;2023-10-09T02:53:59;2.92;;;0.90;;
69956;SDS011;57283;54.816;9.482;2023-10-09T02:56:36;3.00;;;0.90;;
69956;SDS011;57283;54.816;9.482;2023-10-09T02:59:09;3.05;;;0.90;;
69956;SDS011;57283;54.816;9.482;2023-10-09T03:01:37;4.70;;;0.98;;
69956;SDS011;57283;54.816;9.482;2023-10-09T03:04:05;4.15;;;1.40;;
69956;SDS011;57283;54.816;9.482;2023-10-09T03:06:33;3.40;;;1.00;;
69956;SDS011;57283;54.816;9.482;2023-10-09T03:09:09;3.40;;;0.90;;
69956;SDS011;57283;54.816;9.482;2023-10-09T03:11:45;5.05;;;1.20;;
69956;SDS011;57283;54.816;9.482;2023-10-09T03:14:14;3.30;;;1.20;;
69956;SDS011;57283;54.816;9.482;2023-10-09T03:16:43;4.47;;;1.20;;
69956;SDS011;57283;54.816;9.482;2023-10-09T03:19:10;3.55;;;1.13;;
69956;SDS011;57283;54.816;9.482;2023-10-09T03:21:39;4.40;;;1.53;;
69956;SDS011;57283;54.816;9.482;2023-10-09T03:24:08;4.55;;;1.45;;
69956;SDS011;57283;54.816;9.482;2023-10-09T03:26:37;4.07;;;1.00;;
69956;SDS011;57283;54.816;9.482;2023-10-09T03:29:06;3.75;;;1.10;;
69956;SDS011;57283;54.816;9.482;2023-10-09T03:31:36;4.10;;;1.38;;
69956;SDS011;57283;54.816;9.482;2023-10-09T03:34:04;4.57;;;1.00;;
69956;SDS011;57283;54.816;9.482;2023-10-09T03:36:32;4.72;;;1.20;;
69956;SDS011;57283;54.816;9.482;2023-10-09T03:39:04;3.67;;;1.40;;
69956;SDS011;57283;54.816;9.482;2023-10-09T03:41:44;3.70;;;1.15;;
69956;SDS011;57283;54.816;9.482;2023-10-09T03:44:14;3.28;;;1.20;;
69956;SDS011;57283;54.816;9.482;2023-10-09T03:46:44;3.47;;;1.10;;
69956;SDS011;57283;54.816;9.482;2023-10-09T03:49:12;5.88;;;1.33;;
69956;SDS011;57283;54.816;9.482;2023-10-09T03:51:49;4.05;;;1.20;;
69956;SDS011;57283;54.816;9.482;2023-10-09T03:54:17;3.53;;;1.25;;
69956;SDS011;57283;54.816;9.482;2023-10-09T03:56:47;5.68;;;1.20;;
69956;SDS011;57283;54.816;9.482;2023-10-09T03:59:18;3.33;;;1.37;;
69956;SDS011;57283;54.816;9.482;2023-10-09T04:01:46;3.53;;;1.20;;
69956;SDS011;57283;54.816;9.482;2023-10-09T04:04:15;3.78;;;1.27;;
69956;SDS011;57283;54.816;9.482;2023-10-09T04:06:43;5.07;;;1.45;;
69956;SDS011;57283;54.816;9.482;2023-10-09T04:09:13;3.50;;;1.08;;
69956;SDS011;57283;54.816;9.482;2023-10-09T04:12:02;3.67;;;1.40;;
69956;SDS011;57283;54.816;9.482;2023-10-09T04:14:53;3.20;;;1.13;;
69956;SDS011;57283;54.816;9.482;2023-10-09T04:17:24;4.55;;;1.20;;
69956;SDS011;57283;54.816;9.482;2023-10-09T04:20:02;3.47;;;1.30;;
69956;SDS011;57283;54.816;9.482;2023-10-09T04:23:02;3.47;;;1.27;;
69956;SDS011;57283;54.816;9.482;2023-10-09T04:25:32;3.47;;;1.30;;
69956;SDS011;57283;54.816;9.482;2023-10-09T04:28:09;3.63;;;1.38;;
69956;SDS011;57283;54.816;9.482;2023-10-09T04:30:47;3.40;;;1.25;;
69956;SDS011;57283;54.816;9.482;2023-10-09T04:33:20;4.25;;;1.40;;
69956;SDS011;57283;54.816;9.482;2023-10-09T04:36:09;4.85;;;1.20;;
69956;SDS011;57283;54.816;9.482;2023-10-09T04:38:49;4.77;;;1.30;;
69956;SDS011;57283;54.816;9.482;2023-10-09T04:41:43;4.40;;;1.08;;
69956;SDS011;57283;54.816;9.482;2023-10-09T04:44:40;4.07;;;1.30;;
69956;SDS011;57283;54.816;9.482;2023-10-09T04:47:27;4.35;;;1.35;;
69956;SDS011;57283;54.816;9.482;2023-10-09T04:50:03;3.20;;;1.30;;
69956;SDS011;57283;54.816;9.482;2023-10-09T04:52:35;4.13;;;1.07;;
69956;SDS011;57283;54.816;9.482;2023-10-09T04:55:20;3.55;;;1.23;;
69956;SDS011;57283;54.816;9.482;2023-10-09T04:57:51;3.33;;;1.20;;
69956;SDS011;57283;54.816;9.482;2023-10-09T05:00:29;4.57;;;1.40;;
69956;SDS011;57283;54.816;9.482;2023-10-09T05:03:30;3.75;;;1.30;;
69956;SDS011;57283;54.816;9.482;2023-10-09T05:06:12;3.73;;;1.30;;
69956;SDS011;57283;54.816;9.482;2023-10-09T05:09:09;5.03;;;1.50;;
69956;SDS011;57283;54.816;9.482;2023-10-09T05:11:39;4.72;;;1.20;;
69956;SDS011;57283;54.816;9.482;2023-10-09T05:14:24;4.70;;;1.70;;
69956;SDS011;57283;54.816;9.482;2023-10-09T05:17:05;5.10;;;1.70;;
69956;SDS011;57283;54.816;9.482;2023-10-09T05:19:37;5.10;;;1.97;;
69956;SDS011;57283;54.816;9.482;2023-10-09T05:22:42;4.32;;;1.83;;
69956;SDS011;57283;54.816;9.482;2023-10-09T05:25:23;4.28;;;1.75;;
69956;SDS011;57283;54.816;9.482;2023-10-09T05:28:05;4.88;;;1.90;;
69956;SDS011;57283;54.816;9.482;2023-10-09T05:30:46;4.97;;;1.75;;
69956;SDS011;57283;54.816;9.482;2023-10-09T05:33:21;4.90;;;2.00;;
69956;SDS011;57283;54.816;9.482;2023-10-09T05:36:02;6.25;;;2.20;;
69956;SDS011;57283;54.816;9.482;2023-10-09T05:38:44;5.10;;;2.30;;
69956;SDS011;57283;54.816;9.482;2023-10-09T05:41:25;5.57;;;2.40;;
69956;SDS011;57283;54.816;9.482;2023-10-09T05:44:13;5.60;;;2.50;;
69956;SDS011;57283;54.816;9.482;2023-10-09T05:46:58;7.90;;;3.00;;
69956;SDS011;57283;54.816;9.482;2023-10-09T05:49:45;6.10;;;2.40;;
69956;SDS011;57283;54.816;9.482;2023-10-09T05:52:15;4.78;;;2.47;;
69956;SDS011;57283;54.816;9.482;2023-10-09T05:54:59;7.57;;;2.65;;
69956;SDS011;57283;54.816;9.482;2023-10-09T05:57:44;6.25;;;2.63;;
69956;SDS011;57283;54.816;9.482;2023-10-09T06:00:26;9.40;;;2.47;;
69956;SDS011;57283;54.816;9.482;2023-10-09T06:03:11;6.05;;;2.50;;
69956;SDS011;57283;54.816;9.482;2023-10-09T06:05:53;5.70;;;2.63;;
69956;SDS011;57283;54.816;9.482;2023-10-09T06:08:32;5.78;;;2.33;;
69956;SDS011;57283;54.816;9.482;2023-10-09T06:11:34;5.82;;;3.05;;
69956;SDS011;57283;54.816;9.482;2023-10-09T06:14:16;5.70;;;2.27;;
69956;SDS011;57283;54.816;9.482;2023-10-09T06:16:51;5.93;;;2.50;;
69956;SDS011;57283;54.816;9.482;2023-10-09T06:19:27;5.18;;;2.50;;
69956;SDS011;57283;54.816;9.482;2023-10-09T06:21:58;7.05;;;2.75;;
69956;SDS011;57283;54.816;9.482;2023-10-09T06:24:57;7.88;;;2.78;;
69956;SDS011;57283;54.816;9.482;2023-10-09T06:27:35;5.83;;;2.70;;
69956;SDS011;57283;54.816;9.482;2023-10-09T06:30:23;6.57;;;2.50;;
69956;SDS011;57283;54.816;9.482;2023-10-09T06:32:53;6.57;;;2.50;;
69956;SDS011;57283;54.816;9.482;2023-10-09T06:35:33;5.40;;;2.63;;
69956;SDS011;57283;54.816;9.482;2023-10-09T06:38:02;4.85;;;2.40;;
69956;SDS011;57283;54.816;9.482;2023-10-09T06:40:47;5.23;;;2.40;;
69956;SDS011;57283;54.816;9.482;2023-10-09T06:43:43;5.75;;;2.55;;
69956;SDS011;57283;54.816;9.482;2023-10-09T06:46:15;8.25;;;2.40;;
69956;SDS011;57283;54.816;9.482;2023-10-09T06:49:11;7.05;;;2.00;;
69956;SDS011;57283;54.816;9.482;2023-10-09T06:51:59;5.05;;;2.10;;
69956;SDS011;57283;54.816;9.482;2023-10-09T06:54:41;5.03;;;2.10;;
69956;SDS011;57283;54.816;9.482;2023-10-09T06:57:18;5.53;;;2.15;;
69956;SDS011;57283;54.816;9.482;2023-10-09T07:00:00;5.45;;;2.40;;
69956;SDS011;57283;54.816;9.482;2023-10-09T07:02:57;5.30;;;2.10;;
69956;SDS011;57283;54.816;9.482;2023-10-09T07:05:31;6.55;;;2.28;;
69956;SDS011;57283;54.816;9.482;2023-10-09T07:08:14;4.97;;;2.20;;
69956;SDS011;57283;54.816;9.482;2023-10-09T07:10:58;4.90;;;2.00;;
69956;SDS011;57283;54.816;9.482;2023-10-09T07:13:48;5.45;;;2.30;;
69956;SDS011;57283;54.816;9.482;2023-10-09T07:16:22;5.20;;;2.20;;
69956;SDS011;57283;54.816;9.482;2023-10-09T07:18:55;4.70;;;2.20;;
69956;SDS011;57283;54.816;9.482;2023-10-09T07:21:35;6.53;;;2.07;;
69956;SDS011;57283;54.816;9.482;2023-10-09T07:24:05;5.82;;;2.40;;
69956;SDS011;57283;54.816;9.482;2023-10-09T07:26:43;4.82;;;2.30;;
69956;SDS011;57283;54.816;9.482;2023-10-09T07:29:20;4.72;;;1.85;;
69956;SDS011;57283;54.816;9.482;2023-10-09T07:31:49;5.07;;;2.00;;
69956;SDS011;57283;54.816;9.482;2023-10-09T07:34:24;5.67;;;1.87;;
69956;SDS011;57283;54.816;9.482;2023-10-09T07:40:13;5.97;;;2.08;;
69956;SDS011;57283;54.816;9.482;2023-10-09T07:42:41;4.13;;;1.60;;
69956;SDS011;57283;54.816;9.482;2023-10-09T07:45:12;5.53;;;1.73;;
69956;SDS011;57283;54.816;9.482;2023-10-09T07:48:00;4.60;;;1.90;;
69956;SDS011;57283;54.816;9.482;2023-10-09T07:50:29;4.28;;;1.70;;
69956;SDS011;57283;54.816;9.482;2023-10-09T07:53:04;4.20;;;1.70;;
69956;SDS011;57283;54.816;9.482;2023-10-09T07:55:46;6.75;;;2.35;;
69956;SDS011;57283;54.816;9.482;2023-10-09T07:58:20;4.45;;;1.90;;
69956;SDS011;57283;54.816;9.482;2023-10-09T08:00:53;6.13;;;1.70;;
69956;SDS011;57283;54.816;9.482;2023-10-09T08:03:34;6.72;;;1.75;;
69956;SDS011;57283;54.816;9.482;2023-10-09T08:06:02;5.03;;;1.90;;
69956;SDS011;57283;54.816;9.482;2023-10-09T08:08:51;4.70;;;1.60;;
69956;SDS011;57283;54.816;9.482;2023-10-09T08:11:48;4.60;;;1.65;;
69956;SDS011;57283;54.816;9.482;2023-10-09T08:14:40;5.40;;;1.70;;
69956;SDS011;57283;54.816;9.482;2023-10-09T08:17:16;4.90;;;1.73;;
69956;SDS011;57283;54.816;9.482;2023-10-09T08:19:46;4.75;;;1.90;;
69956;SDS011;57283;54.816;9.482;2023-10-09T08:22:21;4.22;;;1.60;;
69956;SDS011;57283;54.816;9.482;2023-10-09T08:25:06;6.80;;;2.00;;
69956;SDS011;57283;54.816;9.482;2023-10-09T08:27:34;4.77;;;1.60;;
69956;SDS011;57283;54.816;9.482;2023-10-09T08:30:21;4.47;;;1.92;;
69956;SDS011;57283;54.816;9.482;2023-10-09T08:33:17;5.15;;;2.05;;
69956;SDS011;57283;54.816;9.482;2023-10-09T08:36:22;6.40;;;2.28;;
69956;SDS011;57283;54.816;9.482;2023-10-09T08:38:54;3.88;;;1.60;;
69956;SDS011;57283;54.816;9.482;2023-10-09T08:41:24;4.20;;;1.80;;
69956;SDS011;57283;54.816;9.482;2023-10-09T08:43:56;3.72;;;1.60;;
69956;SDS011;57283;54.816;9.482;2023-10-09T08:46:24;6.00;;;2.00;;
69956;SDS011;57283;54.816;9.482;2023-10-09T08:48:56;4.03;;;1.60;;
69956;SDS011;57283;54.816;9.482;2023-10-09T08:51:25;4.38;;;2.05;;
69956;SDS011;57283;54.816;9.482;2023-10-09T08:53:53;5.50;;;1.93;;
69956;SDS011;57283;54.816;9.482;2023-10-09T08:56:20;5.30;;;1.95;;
69956;SDS011;57283;54.816;9.482;2023-10-09T08:58:50;5.28;;;2.33;;
69956;SDS011;57283;54.816;9.482;2023-10-09T09:01:19;8.82;;;2.92;;
69956;SDS011;57283;54.816;9.482;2023-10-09T09:03:48;7.60;;;2.78;;
69956;SDS011;57283;54.816;9.482;2023-10-09T09:06:18;6.33;;;2.43;;
69956;SDS011;57283;54.816;9.482;2023-10-09T09:08:46;7.43;;;2.80;;
69956;SDS011;57283;54.816;9.482;2023-10-09T09:11:14;5.30;;;2.20;;
69956;SDS011;57283;54.816;9.482;2023-10-09T09:13:44;5.75;;;2.40;;
69956;SDS011;57283;54.816;9.482;2023-10-09T09:16:19;4.25;;;1.98;;
69956;SDS011;57283;54.816;9.482;2023-10-09T09:18:50;4.67;;;2.07;;
69956;SDS011;57283;54.816;9.482;2023-10-09T09:21:31;4.78;;;2.00;;
69956;SDS011;57283;54.816;9.482;2023-10-09T09:24:04;4.35;;;1.67;;
69956;SDS011;57283;54.816;9.482;2023-10-09T09:26:54;4.20;;;1.83;;
69956;SDS011;57283;54.816;9.482;2023-10-09T09:29:37;4.97;;;2.08;;
69956;SDS011;57283;54.816;9.482;2023-10-09T09:32:05;5.37;;;1.90;;
69956;SDS011;57283;54.816;9.482;2023-10-09T09:34:45;4.45;;;2.15;;
69956;SDS011;57283;54.816;9.482;2023-10-09T09:37:22;5.20;;;2.20;;
69956;SDS011;57283;54.816;9.482;2023-10-09T09:39:55;6.43;;;2.05;;
69956;SDS011;57283;54.816;9.482;2023-10-09T09:42:24;5.07;;;2.28;;
69956;SDS011;57283;54.816;9.482;2023-10-09T09:44:54;4.43;;;1.77;;
69956;SDS011;57283;54.816;9.482;2023-10-09T09:47:23;4.47;;;1.70;;
69956;SDS011;57283;54.816;9.482;2023-10-09T09:49:53;4.30;;;1.73;;
69956;SDS011;57283;54.816;9.482;2023-10-09T09:52:29;4.50;;;1.88;;
69956;SDS011;57283;54.816;9.482;2023-10-09T09:55:06;4.05;;;1.95;;
69956;SDS011;57283;54.816;9.482;2023-10-09T09:57:40;4.50;;;2.00;;
69956;SDS011;57283;54.816;9.482;2023-10-09T10:00:12;4.15;;;2.15;;
69956;SDS011;57283;54.816;9.482;2023-10-09T10:02:54;4.40;;;1.67;;
69956;SDS011;57283;54.816;9.482;2023-10-09T10:05:25;3.72;;;1.70;;
69956;SDS011;57283;54.816;9.482;2023-10-09T10:07:58;6.97;;;1.98;;
69956;SDS011;57283;54.816;9.482;2023-10-09T10:10:36;4.60;;;1.80;;
69956;SDS011;57283;54.816;9.482;2023-10-09T10:13:06;4.85;;;2.00;;
69956;SDS011;57283;54.816;9.482;2023-10-09T10:18:52;3.95;;;1.90;;
69956;SDS011;57283;54.816;9.482;2023-10-09T10:21:20;4.20;;;1.80;;
69956;SDS011;57283;54.816;9.482;2023-10-09T10:24:01;4.73;;;1.83;;
69956;SDS011;57283;54.816;9.482;2023-10-09T10:26:33;4.57;;;2.13;;
69956;SDS011;57283;54.816;9.482;2023-10-09T10:29:13;4.05;;;1.95;;
69956;SDS011;57283;54.816;9.482;2023-10-09T10:31:52;3.95;;;1.85;;
69956;SDS011;57283;54.816;9.482;2023-10-09T10:34:22;4.45;;;2.00;;
69956;SDS011;57283;54.816;9.482;2023-10-09T10:36:51;4.23;;;2.00;;
69956;SDS011;57283;54.816;9.482;2023-10-09T10:39:26;4.45;;;2.20;;
69956;SDS011;57283;54.816;9.482;2023-10-09T10:42:14;4.45;;;2.05;;
69956;SDS011;57283;54.816;9.482;2023-10-09T10:45:00;5.65;;;2.30;;
69956;SDS011;57283;54.816;9.482;2023-10-09T10:47:29;4.30;;;2.20;;
69956;SDS011;57283;54.816;9.482;2023-10-09T10:50:00;4.33;;;2.00;;
69956;SDS011;57283;54.816;9.482;2023-10-09T10:52:38;4.00;;;2.20;;
69956;SDS011;57283;54.816;9.482;2023-10-09T10:55:12;5.03;;;2.33;;
69956;SDS011;57283;54.816;9.482;2023-10-09T10:58:14;4.18;;;2.22;;
69956;SDS011;57283;54.816;9.482;2023-10-09T11:00:53;5.28;;;2.42;;
69956;SDS011;57283;54.816;9.482;2023-10-09T11:03:38;4.73;;;2.40;;
69956;SDS011;57283;54.816;9.482;2023-10-09T11:06:24;4.97;;;2.20;;
69956;SDS011;57283;54.816;9.482;2023-10-09T11:09:02;4.63;;;2.13;;
69956;SDS011;57283;54.816;9.482;2023-10-09T11:11:38;4.85;;;2.45;;
69956;SDS011;57283;54.816;9.482;2023-10-09T11:14:13;5.43;;;2.50;;
69956;SDS011;57283;54.816;9.482;2023-10-09T11:16:42;4.70;;;2.10;;
69956;SDS011;57283;54.816;9.482;2023-10-09T11:19:14;4.88;;;2.20;;
69956;SDS011;57283;54.816;9.482;2023-10-09T11:22:00;5.30;;;2.47;;
69956;SDS011;57283;54.816;9.482;2023-10-09T11:24:48;3.75;;;1.90;;
69956;SDS011;57283;54.816;9.482;2023-10-09T11:27:36;3.80;;;2.10;;
69956;SDS011;57283;54.816;9.482;2023-10-09T11:30:06;4.40;;;2.23;;
69956;SDS011;57283;54.816;9.482;2023-10-09T11:32:37;4.22;;;2.13;;
69956;SDS011;57283;54.816;9.482;2023-10-09T11:35:12;4.57;;;2.10;;
69956;SDS011;57283;54.816;9.482;2023-10-09T11:37:54;5.32;;;2.30;;
69956;SDS011;57283;54.816;9.482;2023-10-09T11:40:30;5.18;;;2.30;;
69956;SDS011;57283;54.816;9.482;2023-10-09T11:43:17;3.90;;;2.00;;
69956;SDS011;57283;54.816;9.482;2023-10-09T11:45:52;4.28;;;2.20;;
69956;SDS011;57283;54.816;9.482;2023-10-09T11:48:22;4.00;;;1.90;;
69956;SDS011;57283;54.816;9.482;2023-10-09T11:50:57;4.00;;;2.20;;
69956;SDS011;57283;54.816;9.482;2023-10-09T11:53:45;3.92;;;1.98;;
69956;SDS011;57283;54.816;9.482;2023-10-09T11:56:16;4.73;;;2.60;;
69956;SDS011;57283;54.816;9.482;2023-10-09T11:58:48;5.82;;;2.78;;
69956;SDS011;57283;54.816;9.482;2023-10-09T12:01:17;5.40;;;2.47;;
69956;SDS011;57283;54.816;9.482;2023-10-09T12:03:47;4.32;;;2.22;;
69956;SDS011;57283;54.816;9.482;2023-10-09T12:06:17;4.90;;;2.25;;
69956;SDS011;57283;54.816;9.482;2023-10-09T12:08:49;5.40;;;2.50;;
69956;SDS011;57283;54.816;9.482;2023-10-09T12:11:22;4.80;;;2.20;;
69956;SDS011;57283;54.816;9.482;2023-10-09T12:13:57;4.65;;;2.20;;
69956;SDS011;57283;54.816;9.482;2023-10-09T12:16:27;4.63;;;2.38;;
69956;SDS011;57283;54.816;9.482;2023-10-09T12:18:56;4.85;;;2.33;;
69956;SDS011;57283;54.816;9.482;2023-10-09T12:21:24;3.93;;;2.33;;
69956;SDS011;57283;54.816;9.482;2023-10-09T12:23:54;4.60;;;2.20;;
69956;SDS011;57283;54.816;9.482;2023-10-09T12:26:26;5.20;;;2.53;;
69956;SDS011;57283;54.816;9.482;2023-10-09T12:28:54;5.32;;;2.40;;
69956;SDS011;57283;54.816;9.482;2023-10-09T12:31:29;3.85;;;2.20;;
69956;SDS011;57283;54.816;9.482;2023-10-09T12:34:00;4.30;;;2.03;;
69956;SDS011;57283;54.816;9.482;2023-10-09T12:36:28;5.55;;;2.80;;
69956;SDS011;57283;54.816;9.482;2023-10-09T12:38:56;4.68;;;2.40;;
69956;SDS011;57283;54.816;9.482;2023-10-09T12:41:27;4.47;;;2.25;;
69956;SDS011;57283;54.816;9.482;2023-10-09T12:44:00;4.63;;;2.15;;
69956;SDS011;57283;54.816;9.482;2023-10-09T12:46:29;3.60;;;1.87;;
69956;SDS011;57283;54.816;9.482;2023-10-09T12:49:04;3.97;;;1.80;;
69956;SDS011;57283;54.816;9.482;2023-10-09T12:51:34;3.75;;;2.03;;
69956;SDS011;57283;54.816;9.482;2023-10-09T12:54:01;3.97;;;1.80;;
69956;SDS011;57283;54.816;9.482;2023-10-09T12:56:29;3.97;;;1.90;;
69956;SDS011;57283;54.816;9.482;2023-10-09T12:59:10;6.17;;;2.10;;
69956;SDS011;57283;54.816;9.482;2023-10-09T13:01:45;3.70;;;2.08;;
69956;SDS011;57283;54.816;9.482;2023-10-09T13:04:19;4.13;;;1.88;;
69956;SDS011;57283;54.816;9.482;2023-10-09T13:06:48;4.13;;;2.00;;
69956;SDS011;57283;54.816;9.482;2023-10-09T13:09:18;3.85;;;2.17;;
69956;SDS011;57283;54.816;9.482;2023-10-09T13:11:51;5.80;;;2.43;;
69956;SDS011;57283;54.816;9.482;2023-10-09T13:14:19;5.15;;;2.80;;
69956;SDS011;57283;54.816;9.482;2023-10-09T13:16:49;4.68;;;2.10;;
69956;SDS011;57283;54.816;9.482;2023-10-09T13:19:18;4.25;;;2.03;;
69956;SDS011;57283;54.816;9.482;2023-10-09T13:21:46;4.38;;;2.20;;
69956;SDS011;57283;54.816;9.482;2023-10-09T13:24:15;4.90;;;2.33;;
69956;SDS011;57283;54.816;9.482;2023-10-09T13:26:42;5.32;;;2.70;;
69956;SDS011;57283;54.816;9.482;2023-10-09T13:29:12;5.78;;;2.22;;
69956;SDS011;57283;54.816;9.482;2023-10-09T13:31:42;4.95;;;1.90;;
69956;SDS011;57283;54.816;9.482;2023-10-09T13:34:15;5.72;;;2.80;;
69956;SDS011;57283;54.816;9.482;2023-10-09T13:36:43;4.97;;;2.00;;
69956;SDS011;57283;54.816;9.482;2023-10-09T13:39:19;5.65;;;2.20;;
69956;SDS011;57283;54.816;9.482;2023-10-09T13:41:50;5.32;;;2.78;;
69956;SDS011;57283;54.816;9.482;2023-10-09T13:44:24;4.82;;;2.38;;
69956;SDS011;57283;54.816;9.482;2023-10-09T13:46:53;6.30;;;3.25;;
69956;SDS011;57283;54.816;9.482;2023-10-09T13:49:22;5.20;;;2.70;;
69956;SDS011;57283;54.816;9.482;2023-10-09T13:51:56;5.38;;;2.53;;
69956;SDS011;57283;54.816;9.482;2023-10-09T13:54:24;5.22;;;2.28;;
69956;SDS011;57283;54.816;9.482;2023-10-09T13:57:06;4.82;;;2.38;;
69956;SDS011;57283;54.816;9.482;2023-10-09T13:59:34;4.85;;;2.60;;
69956;SDS011;57283;54.816;9.482;2023-10-09T14:02:02;4.83;;;2.57;;
69956;SDS011;57283;54.816;9.482;2023-10-09T14:04:38;5.05;;;2.35;;
69956;SDS011;57283;54.816;9.482;2023-10-09T14:07:06;4.32;;;2.20;;
69956;SDS011;57283;54.816;9.482;2023-10-09T14:09:33;5.15;;;2.17;;
69956;SDS011;57283;54.816;9.482;2023-10-09T14:12:04;5.03;;;2.33;;
69956;SDS011;57283;54.816;9.482;2023-10-09T14:14:37;5.40;;;2.23;;
69956;SDS011;57283;54.816;9.482;2023-10-09T14:17:07;4.10;;;2.33;;
69956;SDS011;57283;54.816;9.482;2023-10-09T14:19:40;5.38;;;2.30;;
69956;SDS011;57283;54.816;9.482;2023-10-09T14:22:13;4.30;;;2.15;;
69956;SDS011;57283;54.816;9.482;2023-10-09T14:24:42;5.07;;;2.20;;
69956;SDS011;57283;54.816;9.482;2023-10-09T14:27:12;5.03;;;2.30;;
69956;SDS011;57283;54.816;9.482;2023-10-09T14:29:44;4.22;;;2.25;;
69956;SDS011;57283;54.816;9.482;2023-10-09T14:32:13;4.45;;;2.22;;
69956;SDS011;57283;54.816;9.482;2023-10-09T14:34:43;4.45;;;2.30;;
69956;SDS011;57283;54.816;9.482;2023-10-09T14:37:19;5.90;;;2.42;;
69956;SDS011;57283;54.816;9.482;2023-10-09T14:39:47;5.67;;;2.90;;
69956;SDS011;57283;54.816;9.482;2023-10-09T14:42:15;5.93;;;2.65;;
69956;SDS011;57283;54.816;9.482;2023-10-09T14:44:43;6.32;;;3.10;;
69956;SDS011;57283;54.816;9.482;2023-10-09T14:47:11;6.85;;;3.45;;
69956;SDS011;57283;54.816;9.482;2023-10-09T14:49:41;5.50;;;2.72;;
69956;SDS011;57283;54.816;9.482;2023-10-09T14:52:14;5.20;;;2.60;;
69956;SDS011;57283;54.816;9.482;2023-10-09T14:54:45;6.38;;;2.80;;
69956;SDS011;57283;54.816;9.482;2023-10-09T14:57:13;5.90;;;3.03;;
69956;SDS011;57283;54.816;9.482;2023-10-09T14:59:41;5.68;;;3.00;;
69956;SDS011;57283;54.816;9.482;2023-10-09T15:02:10;5.07;;;2.58;;
69956;SDS011;57283;54.816;9.482;2023-10-09T15:04:39;5.13;;;2.37;;
69956;SDS011;57283;54.816;9.482;2023-10-09T15:07:07;4.88;;;2.30;;
69956;SDS011;57283;54.816;9.482;2023-10-09T15:09:36;4.50;;;2.20;;
69956;SDS011;57283;54.816;9.482;2023-10-09T15:12:06;4.82;;;2.40;;
69956;SDS011;57283;54.816;9.482;2023-10-09T15:14:34;5.88;;;2.58;;
69956;SDS011;57283;54.816;9.482;2023-10-09T15:17:03;5.97;;;2.77;;
69956;SDS011;57283;54.816;9.482;2023-10-09T15:19:33;4.75;;;2.65;;
69956;SDS011;57283;54.816;9.482;2023-10-09T15:22:01;5.85;;;2.83;;
69956;SDS011;57283;54.816;9.482;2023-10-09T15:24:36;4.88;;;2.67;;
69956;SDS011;57283;54.816;9.482;2023-10-09T15:27:03;5.80;;;2.58;;
69956;SDS011;57283;54.816;9.482;2023-10-09T15:29:33;4.67;;;2.33;;
69956;SDS011;57283;54.816;9.482;2023-10-09T15:32:03;5.25;;;2.35;;
69956;SDS011;57283;54.816;9.482;2023-10-09T15:34:41;5.40;;;2.65;;
69956;SDS011;57283;54.816;9.482;2023-10-09T15:37:10;6.97;;;2.88;;
69956;SDS011;57283;54.816;9.482;2023-10-09T15:39:41;5.95;;;2.78;;
69956;SDS011;57283;54.816;9.482;2023-10-09T15:42:09;6.27;;;2.47;;